sensor_id;sensor_type;location;lat;lon;timestamp;temperature;humidity
21787;DHT22;11055;50.870;4.316;2023-07-20T00:01:15;19.80;99.90
21787;DHT22;11055;50.870;4.316;2023-07-20T00:03:41;19.60;99.90
21787;DHT22;11055;50.870;4.316;2023-07-20T00:06:08;19.40;99.90
21787;DHT22;11055;50.870;4.316;2023-07-20T00:08:34;19.30;99.90
21787;DHT22;11055;50.870;4.316;2023-07-20T00:10:59;19.20;99.90
21787;DHT22;11055;50.870;4.316;2023-07-20T00:13:25;19.20;99.90
21787;DHT22;11055;50.870;4.316;2023-07-20T00:15:51;19.30;99.90
21787;DHT22;11055;50.870;4.316;2023-07-20T00:18:17;19.20;99.90
21787;DHT22;11055;50.870;4.316;2023-07-20T00:20:46;19.10;99.90
21787;DHT22;11055;50.870;4.316;2023-07-20T00:23:12;19.10;99.90
21787;DHT22;11055;50.870;4.316;2023-07-20T00:25:38;19.00;99.90
21787;DHT22;11055;50.870;4.316;2023-07-20T00:28:03;19.00;99.90
21787;DHT22;11055;50.870;4.316;2023-07-20T00:30:29;19.00;99.90
21787;DHT22;11055;50.870;4.316;2023-07-20T00:32:55;19.10;99.90
21787;DHT22;11055;50.870;4.316;2023-07-20T00:35:20;19.10;99.90
21787;DHT22;11055;50.870;4.316;2023-07-20T00:37:46;19.10;99.90
21787;DHT22;11055;50.870;4.316;2023-07-20T00:40:12;19.10;99.90
21787;DHT22;11055;50.870;4.316;2023-07-20T00:42:37;19.20;99.90
21787;DHT22;11055;50.870;4.316;2023-07-20T00:45:04;19.30;99.90
21787;DHT22;11055;50.870;4.316;2023-07-20T00:47:30;19.50;99.90
21787;DHT22;11055;50.870;4.316;2023-07-20T00:49:56;19.40;99.90
21787;DHT22;11055;50.870;4.316;2023-07-20T00:52:23;19.40;99.90
21787;DHT22;11055;50.870;4.316;2023-07-20T00:54:50;19.50;99.90
21787;DHT22;11055;50.870;4.316;2023-07-20T00:57:17;19.50;99.90
21787;DHT22;11055;50.870;4.316;2023-07-20T00:59:44;19.40;99.90
21787;DHT22;11055;50.870;4.316;2023-07-20T01:02:10;19.40;99.90
21787;DHT22;11055;50.870;4.316;2023-07-20T01:04:36;19.30;99.90
21787;DHT22;11055;50.870;4.316;2023-07-20T01:07:26;19.20;99.90
21787;DHT22;11055;50.870;4.316;2023-07-20T01:12:46;19.30;99.90
21787;DHT22;11055;50.870;4.316;2023-07-20T01:15:12;19.10;99.90
21787;DHT22;11055;50.870;4.316;2023-07-20T01:17:38;19.00;99.90
21787;DHT22;11055;50.870;4.316;2023-07-20T01:20:08;19.10;99.90
21787;DHT22;11055;50.870;4.316;2023-07-20T01:30:59;19.50;99.90
21787;DHT22;11055;50.870;4.316;2023-07-20T01:33:25;19.30;99.90
21787;DHT22;11055;50.870;4.316;2023-07-20T01:35:57;19.00;99.90
21787;DHT22;11055;50.870;4.316;2023-07-20T01:38:24;18.80;99.90
21787;DHT22;11055;50.870;4.316;2023-07-20T01:40:50;18.60;99.90
21787;DHT22;11055;50.870;4.316;2023-07-20T01:43:17;18.50;99.90
21787;DHT22;11055;50.870;4.316;2023-07-20T01:45:43;18.30;99.90
21787;DHT22;11055;50.870;4.316;2023-07-20T01:48:09;18.20;99.90
21787;DHT22;11055;50.870;4.316;2023-07-20T01:50:35;18.20;99.90
21787;DHT22;11055;50.870;4.316;2023-07-20T01:53:01;18.10;99.90
21787;DHT22;11055;50.870;4.316;2023-07-20T01:55:27;18.10;99.90
21787;DHT22;11055;50.870;4.316;2023-07-20T01:57:53;18.00;99.90
21787;DHT22;11055;50.870;4.316;2023-07-20T02:00:19;17.90;99.90
21787;DHT22;11055;50.870;4.316;2023-07-20T02:02:47;17.80;99.90
21787;DHT22;11055;50.870;4.316;2023-07-20T02:05:12;17.80;99.90
21787;DHT22;11055;50.870;4.316;2023-07-20T02:07:39;17.80;99.90
21787;DHT22;11055;50.870;4.316;2023-07-20T02:10:05;17.80;99.90
21787;DHT22;11055;50.870;4.316;2023-07-20T02:12:31;17.80;99.90
21787;DHT22;11055;50.870;4.316;2023-07-20T02:14:57;17.80;99.90
21787;DHT22;11055;50.870;4.316;2023-07-20T02:17:23;17.80;99.90
21787;DHT22;11055;50.870;4.316;2023-07-20T02:19:52;17.90;99.90
21787;DHT22;11055;50.870;4.316;2023-07-20T02:22:18;17.90;99.90
21787;DHT22;11055;50.870;4.316;2023-07-20T02:24:44;17.90;99.90
21787;DHT22;11055;50.870;4.316;2023-07-20T02:27:09;17.80;99.90
21787;DHT22;11055;50.870;4.316;2023-07-20T02:29:35;17.80;99.90
21787;DHT22;11055;50.870;4.316;2023-07-20T02:32:02;17.80;99.90
21787;DHT22;11055;50.870;4.316;2023-07-20T02:34:27;17.70;99.90
21787;DHT22;11055;50.870;4.316;2023-07-20T02:36:53;17.80;99.90
21787;DHT22;11055;50.870;4.316;2023-07-20T02:39:21;17.90;99.90
21787;DHT22;11055;50.870;4.316;2023-07-20T02:41:47;17.90;99.90
21787;DHT22;11055;50.870;4.316;2023-07-20T02:44:14;18.00;99.90
21787;DHT22;11055;50.870;4.316;2023-07-20T02:46:39;17.90;99.90
21787;DHT22;11055;50.870;4.316;2023-07-20T02:49:05;17.90;99.90
21787;DHT22;11055;50.870;4.316;2023-07-20T02:51:31;17.80;99.90
21787;DHT22;11055;50.870;4.316;2023-07-20T02:53:56;17.90;99.90
21787;DHT22;11055;50.870;4.316;2023-07-20T02:56:22;17.90;99.90
21787;DHT22;11055;50.870;4.316;2023-07-20T02:58:48;17.80;99.90
21787;DHT22;11055;50.870;4.316;2023-07-20T03:01:14;17.80;99.90
21787;DHT22;11055;50.870;4.316;2023-07-20T03:03:41;17.80;99.90
21787;DHT22;11055;50.870;4.316;2023-07-20T03:06:12;17.80;99.90
21787;DHT22;11055;50.870;4.316;2023-07-20T03:08:38;17.70;99.90
21787;DHT22;11055;50.870;4.316;2023-07-20T03:11:03;17.70;99.90
21787;DHT22;11055;50.870;4.316;2023-07-20T03:13:29;17.60;99.90
21787;DHT22;11055;50.870;4.316;2023-07-20T03:15:55;17.60;99.90
21787;DHT22;11055;50.870;4.316;2023-07-20T03:18:21;17.60;99.90
21787;DHT22;11055;50.870;4.316;2023-07-20T03:20:46;17.60;99.90
21787;DHT22;11055;50.870;4.316;2023-07-20T03:23:14;17.60;99.90
21787;DHT22;11055;50.870;4.316;2023-07-20T03:25:41;17.70;99.90
21787;DHT22;11055;50.870;4.316;2023-07-20T03:28:06;17.70;99.90
21787;DHT22;11055;50.870;4.316;2023-07-20T03:30:33;17.80;99.90
21787;DHT22;11055;50.870;4.316;2023-07-20T03:32:58;17.70;99.90
21787;DHT22;11055;50.870;4.316;2023-07-20T03:35:24;17.60;99.90
21787;DHT22;11055;50.870;4.316;2023-07-20T03:37:50;17.50;99.90
21787;DHT22;11055;50.870;4.316;2023-07-20T03:40:15;17.50;99.90
21787;DHT22;11055;50.870;4.316;2023-07-20T03:42:41;17.60;99.90
21787;DHT22;11055;50.870;4.316;2023-07-20T03:45:07;17.70;99.90
21787;DHT22;11055;50.870;4.316;2023-07-20T03:47:33;17.70;99.90
21787;DHT22;11055;50.870;4.316;2023-07-20T03:49:59;17.70;99.90
21787;DHT22;11055;50.870;4.316;2023-07-20T03:52:25;17.60;99.90
21787;DHT22;11055;50.870;4.316;2023-07-20T03:54:50;17.50;99.90
21787;DHT22;11055;50.870;4.316;2023-07-20T03:57:19;17.50;99.90
21787;DHT22;11055;50.870;4.316;2023-07-20T03:59:45;17.60;99.90
21787;DHT22;11055;50.870;4.316;2023-07-20T04:02:11;17.70;99.90
21787;DHT22;11055;50.870;4.316;2023-07-20T04:04:37;17.70;99.90
21787;DHT22;11055;50.870;4.316;2023-07-20T04:07:03;17.70;99.90
21787;DHT22;11055;50.870;4.316;2023-07-20T04:09:29;17.60;99.90
21787;DHT22;11055;50.870;4.316;2023-07-20T04:11:55;17.60;99.90
21787;DHT22;11055;50.870;4.316;2023-07-20T04:14:21;17.70;99.90
21787;DHT22;11055;50.870;4.316;2023-07-20T04:16:47;17.60;99.90
21787;DHT22;11055;50.870;4.316;2023-07-20T04:19:16;17.50;99.90
21787;DHT22;11055;50.870;4.316;2023-07-20T04:21:43;17.50;99.90
21787;DHT22;11055;50.870;4.316;2023-07-20T04:24:09;17.40;99.90
21787;DHT22;11055;50.870;4.316;2023-07-20T04:26:35;17.40;99.90
21787;DHT22;11055;50.870;4.316;2023-07-20T04:29:01;17.50;99.90
21787;DHT22;11055;50.870;4.316;2023-07-20T04:31:26;17.50;99.90
21787;DHT22;11055;50.870;4.316;2023-07-20T04:33:52;17.70;99.90
21787;DHT22;11055;50.870;4.316;2023-07-20T04:36:18;17.90;99.90
21787;DHT22;11055;50.870;4.316;2023-07-20T04:38:48;17.90;99.90
21787;DHT22;11055;50.870;4.316;2023-07-20T04:41:13;18.20;99.90
21787;DHT22;11055;50.870;4.316;2023-07-20T04:43:43;18.40;99.90
21787;DHT22;11055;50.870;4.316;2023-07-20T04:46:12;18.30;99.90
21787;DHT22;11055;50.870;4.316;2023-07-20T04:48:38;18.30;99.90
21787;DHT22;11055;50.870;4.316;2023-07-20T04:51:04;18.40;99.90
21787;DHT22;11055;50.870;4.316;2023-07-20T04:53:29;18.50;99.90
21787;DHT22;11055;50.870;4.316;2023-07-20T04:55:56;18.40;99.90
21787;DHT22;11055;50.870;4.316;2023-07-20T04:58:22;18.50;99.90
21787;DHT22;11055;50.870;4.316;2023-07-20T05:00:49;18.60;99.90
21787;DHT22;11055;50.870;4.316;2023-07-20T05:03:18;18.70;99.90
21787;DHT22;11055;50.870;4.316;2023-07-20T05:05:43;18.60;99.90
21787;DHT22;11055;50.870;4.316;2023-07-20T05:08:09;18.60;99.90
21787;DHT22;11055;50.870;4.316;2023-07-20T05:10:35;18.70;99.90
21787;DHT22;11055;50.870;4.316;2023-07-20T05:13:00;18.70;99.90
21787;DHT22;11055;50.870;4.316;2023-07-20T05:15:26;18.70;99.90
21787;DHT22;11055;50.870;4.316;2023-07-20T05:17:52;18.80;99.90
21787;DHT22;11055;50.870;4.316;2023-07-20T05:20:18;19.00;99.90
21787;DHT22;11055;50.870;4.316;2023-07-20T05:22:44;19.00;99.90
21787;DHT22;11055;50.870;4.316;2023-07-20T05:25:11;18.80;99.90
21787;DHT22;11055;50.870;4.316;2023-07-20T05:27:37;18.70;99.90
21787;DHT22;11055;50.870;4.316;2023-07-20T05:30:04;18.40;99.90
21787;DHT22;11055;50.870;4.316;2023-07-20T05:32:30;18.20;99.90
21787;DHT22;11055;50.870;4.316;2023-07-20T05:34:56;18.00;99.90
21787;DHT22;11055;50.870;4.316;2023-07-20T05:37:22;18.00;99.90
21787;DHT22;11055;50.870;4.316;2023-07-20T05:39:47;18.10;99.90
21787;DHT22;11055;50.870;4.316;2023-07-20T05:42:13;18.40;99.90
21787;DHT22;11055;50.870;4.316;2023-07-20T05:44:40;18.40;99.90
21787;DHT22;11055;50.870;4.316;2023-07-20T05:47:06;18.40;99.90
21787;DHT22;11055;50.870;4.316;2023-07-20T05:49:32;18.50;99.90
21787;DHT22;11055;50.870;4.316;2023-07-20T05:51:57;18.70;99.90
21787;DHT22;11055;50.870;4.316;2023-07-20T05:54:27;18.70;99.90
21787;DHT22;11055;50.870;4.316;2023-07-20T05:56:53;18.60;99.90
21787;DHT22;11055;50.870;4.316;2023-07-20T05:59:19;18.50;99.90
21787;DHT22;11055;50.870;4.316;2023-07-20T06:01:49;18.50;99.90
21787;DHT22;11055;50.870;4.316;2023-07-20T06:04:15;18.70;99.90
21787;DHT22;11055;50.870;4.316;2023-07-20T06:06:41;18.60;99.90
21787;DHT22;11055;50.870;4.316;2023-07-20T06:09:07;18.70;99.90
21787;DHT22;11055;50.870;4.316;2023-07-20T06:11:38;18.90;99.90
21787;DHT22;11055;50.870;4.316;2023-07-20T06:14:04;19.10;99.90
21787;DHT22;11055;50.870;4.316;2023-07-20T06:16:30;19.30;99.90
21787;DHT22;11055;50.870;4.316;2023-07-20T06:18:55;19.40;99.90
21787;DHT22;11055;50.870;4.316;2023-07-20T06:21:21;19.50;99.90
21787;DHT22;11055;50.870;4.316;2023-07-20T06:23:47;19.50;99.90
21787;DHT22;11055;50.870;4.316;2023-07-20T06:26:13;19.50;99.90
21787;DHT22;11055;50.870;4.316;2023-07-20T06:28:38;19.50;99.90
21787;DHT22;11055;50.870;4.316;2023-07-20T06:31:04;19.60;99.90
21787;DHT22;11055;50.870;4.316;2023-07-20T06:33:30;19.60;99.90
21787;DHT22;11055;50.870;4.316;2023-07-20T06:35:56;19.60;99.90
21787;DHT22;11055;50.870;4.316;2023-07-20T06:38:23;19.60;99.90
21787;DHT22;11055;50.870;4.316;2023-07-20T06:40:52;19.60;99.90
21787;DHT22;11055;50.870;4.316;2023-07-20T06:43:18;19.70;99.90
21787;DHT22;11055;50.870;4.316;2023-07-20T06:45:43;19.60;99.90
21787;DHT22;11055;50.870;4.316;2023-07-20T06:48:09;19.40;99.90
21787;DHT22;11055;50.870;4.316;2023-07-20T06:50:35;19.20;99.90
21787;DHT22;11055;50.870;4.316;2023-07-20T06:53:01;19.20;99.90
21787;DHT22;11055;50.870;4.316;2023-07-20T06:55:29;19.40;99.90
21787;DHT22;11055;50.870;4.316;2023-07-20T06:57:55;19.50;99.90
21787;DHT22;11055;50.870;4.316;2023-07-20T07:00:20;19.60;99.90
21787;DHT22;11055;50.870;4.316;2023-07-20T07:02:46;19.60;99.90
21787;DHT22;11055;50.870;4.316;2023-07-20T07:05:12;19.70;99.90
21787;DHT22;11055;50.870;4.316;2023-07-20T07:07:39;19.70;99.90
21787;DHT22;11055;50.870;4.316;2023-07-20T07:10:06;19.70;99.90
21787;DHT22;11055;50.870;4.316;2023-07-20T07:12:32;19.70;99.90
21787;DHT22;11055;50.870;4.316;2023-07-20T07:15:04;19.60;99.90
21787;DHT22;11055;50.870;4.316;2023-07-20T07:17:31;19.60;99.90
21787;DHT22;11055;50.870;4.316;2023-07-20T07:19:58;19.50;99.90
21787;DHT22;11055;50.870;4.316;2023-07-20T07:22:24;19.50;99.90
21787;DHT22;11055;50.870;4.316;2023-07-20T07:24:49;19.40;99.90
21787;DHT22;11055;50.870;4.316;2023-07-20T07:27:15;19.40;99.90
21787;DHT22;11055;50.870;4.316;2023-07-20T07:29:43;19.60;99.90
21787;DHT22;11055;50.870;4.316;2023-07-20T07:32:15;19.80;99.90
21787;DHT22;11055;50.870;4.316;2023-07-20T07:34:41;19.80;99.90
21787;DHT22;11055;50.870;4.316;2023-07-20T07:37:06;19.90;99.90
21787;DHT22;11055;50.870;4.316;2023-07-20T07:39:32;20.00;99.90
21787;DHT22;11055;50.870;4.316;2023-07-20T07:41:58;20.00;99.90
21787;DHT22;11055;50.870;4.316;2023-07-20T07:44:24;19.80;99.90
21787;DHT22;11055;50.870;4.316;2023-07-20T07:46:50;19.70;99.90
21787;DHT22;11055;50.870;4.316;2023-07-20T07:49:16;19.60;99.90
21787;DHT22;11055;50.870;4.316;2023-07-20T07:51:44;19.60;99.90
21787;DHT22;11055;50.870;4.316;2023-07-20T07:54:09;19.70;99.90
21787;DHT22;11055;50.870;4.316;2023-07-20T07:56:35;19.70;99.90
21787;DHT22;11055;50.870;4.316;2023-07-20T07:59:00;19.60;99.90
21787;DHT22;11055;50.870;4.316;2023-07-20T08:01:27;19.40;99.90
21787;DHT22;11055;50.870;4.316;2023-07-20T08:03:52;19.50;99.90
21787;DHT22;11055;50.870;4.316;2023-07-20T08:06:18;19.30;99.90
21787;DHT22;11055;50.870;4.316;2023-07-20T08:08:44;19.30;99.90
21787;DHT22;11055;50.870;4.316;2023-07-20T08:11:09;19.30;99.90
21787;DHT22;11055;50.870;4.316;2023-07-20T08:13:36;19.40;99.90
21787;DHT22;11055;50.870;4.316;2023-07-20T08:16:02;19.40;99.90
21787;DHT22;11055;50.870;4.316;2023-07-20T08:18:28;19.60;99.90
21787;DHT22;11055;50.870;4.316;2023-07-20T08:20:54;19.80;99.90
21787;DHT22;11055;50.870;4.316;2023-07-20T08:23:20;20.10;99.90
21787;DHT22;11055;50.870;4.316;2023-07-20T08:25:46;20.30;99.90
21787;DHT22;11055;50.870;4.316;2023-07-20T08:28:14;20.50;99.90
21787;DHT22;11055;50.870;4.316;2023-07-20T08:30:48;20.60;99.90
21787;DHT22;11055;50.870;4.316;2023-07-20T08:33:15;20.70;99.90
21787;DHT22;11055;50.870;4.316;2023-07-20T08:35:42;20.90;99.90
21787;DHT22;11055;50.870;4.316;2023-07-20T08:38:08;20.90;99.90
21787;DHT22;11055;50.870;4.316;2023-07-20T08:40:39;20.90;99.90
21787;DHT22;11055;50.870;4.316;2023-07-20T08:43:05;20.90;99.90
21787;DHT22;11055;50.870;4.316;2023-07-20T08:45:33;21.10;99.90
21787;DHT22;11055;50.870;4.316;2023-07-20T08:48:01;21.20;99.90
21787;DHT22;11055;50.870;4.316;2023-07-20T08:50:30;21.20;99.90
21787;DHT22;11055;50.870;4.316;2023-07-20T08:52:57;21.20;99.90
21787;DHT22;11055;50.870;4.316;2023-07-20T08:55:25;21.20;99.90
21787;DHT22;11055;50.870;4.316;2023-07-20T08:57:53;21.20;99.90
21787;DHT22;11055;50.870;4.316;2023-07-20T09:00:20;21.30;99.90
21787;DHT22;11055;50.870;4.316;2023-07-20T09:02:52;21.30;99.90
21787;DHT22;11055;50.870;4.316;2023-07-20T09:05:23;21.40;99.90
21787;DHT22;11055;50.870;4.316;2023-07-20T09:07:50;21.40;99.90
21787;DHT22;11055;50.870;4.316;2023-07-20T09:10:16;21.40;99.90
21787;DHT22;11055;50.870;4.316;2023-07-20T09:12:43;21.50;99.90
21787;DHT22;11055;50.870;4.316;2023-07-20T09:15:11;21.60;99.90
21787;DHT22;11055;50.870;4.316;2023-07-20T09:17:37;21.50;99.90
21787;DHT22;11055;50.870;4.316;2023-07-20T09:20:09;21.50;99.90
21787;DHT22;11055;50.870;4.316;2023-07-20T09:22:37;21.50;99.90
21787;DHT22;11055;50.870;4.316;2023-07-20T09:25:08;21.50;99.90
21787;DHT22;11055;50.870;4.316;2023-07-20T09:27:43;21.50;99.90
21787;DHT22;11055;50.870;4.316;2023-07-20T09:30:10;21.60;99.90
21787;DHT22;11055;50.870;4.316;2023-07-20T09:32:43;21.60;99.90
21787;DHT22;11055;50.870;4.316;2023-07-20T09:35:19;21.40;99.90
21787;DHT22;11055;50.870;4.316;2023-07-20T09:37:55;21.30;99.90
21787;DHT22;11055;50.870;4.316;2023-07-20T09:40:24;21.30;99.90
21787;DHT22;11055;50.870;4.316;2023-07-20T09:42:52;21.20;99.90
21787;DHT22;11055;50.870;4.316;2023-07-20T09:45:18;21.20;99.90
21787;DHT22;11055;50.870;4.316;2023-07-20T09:47:44;21.40;99.90
21787;DHT22;11055;50.870;4.316;2023-07-20T09:50:11;21.70;99.90
21787;DHT22;11055;50.870;4.316;2023-07-20T09:52:38;21.90;99.90
21787;DHT22;11055;50.870;4.316;2023-07-20T09:55:09;22.00;99.90
21787;DHT22;11055;50.870;4.316;2023-07-20T09:57:36;22.10;99.90
21787;DHT22;11055;50.870;4.316;2023-07-20T10:00:06;22.10;99.90
21787;DHT22;11055;50.870;4.316;2023-07-20T10:02:41;22.00;99.90
21787;DHT22;11055;50.870;4.316;2023-07-20T10:05:13;22.00;99.90
21787;DHT22;11055;50.870;4.316;2023-07-20T10:07:49;21.90;99.90
21787;DHT22;11055;50.870;4.316;2023-07-20T10:10:16;21.80;99.90
21787;DHT22;11055;50.870;4.316;2023-07-20T10:12:46;21.90;99.90
21787;DHT22;11055;50.870;4.316;2023-07-20T10:15:26;22.10;99.90
21787;DHT22;11055;50.870;4.316;2023-07-20T10:17:57;21.90;99.90
21787;DHT22;11055;50.870;4.316;2023-07-20T10:20:25;21.70;99.90
21787;DHT22;11055;50.870;4.316;2023-07-20T10:22:53;21.70;99.90
21787;DHT22;11055;50.870;4.316;2023-07-20T10:25:22;21.60;99.90
21787;DHT22;11055;50.870;4.316;2023-07-20T10:27:48;21.50;99.90
21787;DHT22;11055;50.870;4.316;2023-07-20T10:30:14;21.50;99.90
21787;DHT22;11055;50.870;4.316;2023-07-20T10:32:40;21.60;99.90
21787;DHT22;11055;50.870;4.316;2023-07-20T10:35:15;21.60;99.90
21787;DHT22;11055;50.870;4.316;2023-07-20T10:37:54;21.70;99.90
21787;DHT22;11055;50.870;4.316;2023-07-20T10:40:33;22.00;99.90
21787;DHT22;11055;50.870;4.316;2023-07-20T10:43:03;22.20;99.90
21787;DHT22;11055;50.870;4.316;2023-07-20T10:45:51;22.20;99.90
21787;DHT22;11055;50.870;4.316;2023-07-20T10:48:24;22.30;99.90
21787;DHT22;11055;50.870;4.316;2023-07-20T10:51:11;22.20;99.90
21787;DHT22;11055;50.870;4.316;2023-07-20T10:53:37;22.30;99.90
21787;DHT22;11055;50.870;4.316;2023-07-20T10:56:07;22.40;99.90
21787;DHT22;11055;50.870;4.316;2023-07-20T10:58:33;22.60;99.90
21787;DHT22;11055;50.870;4.316;2023-07-20T11:01:03;22.60;99.90
21787;DHT22;11055;50.870;4.316;2023-07-20T11:03:37;22.70;99.90
21787;DHT22;11055;50.870;4.316;2023-07-20T11:09:09;22.80;99.90
21787;DHT22;11055;50.870;4.316;2023-07-20T11:11:43;23.00;99.90
21787;DHT22;11055;50.870;4.316;2023-07-20T11:14:11;23.00;99.90
21787;DHT22;11055;50.870;4.316;2023-07-20T11:16:46;23.10;99.90
21787;DHT22;11055;50.870;4.316;2023-07-20T11:19:19;22.70;99.90
21787;DHT22;11055;50.870;4.316;2023-07-20T11:21:47;22.50;99.90
21787;DHT22;11055;50.870;4.316;2023-07-20T11:24:15;22.40;99.90
21787;DHT22;11055;50.870;4.316;2023-07-20T11:29:10;22.50;99.90
21787;DHT22;11055;50.870;4.316;2023-07-20T11:31:38;22.70;99.90
21787;DHT22;11055;50.870;4.316;2023-07-20T11:34:04;22.90;99.90
21787;DHT22;11055;50.870;4.316;2023-07-20T11:36:30;23.00;99.90
21787;DHT22;11055;50.870;4.316;2023-07-20T11:38:56;22.90;99.90
21787;DHT22;11055;50.870;4.316;2023-07-20T11:41:22;22.70;99.90
21787;DHT22;11055;50.870;4.316;2023-07-20T11:43:48;22.70;99.90
21787;DHT22;11055;50.870;4.316;2023-07-20T11:46:13;22.80;99.90
21787;DHT22;11055;50.870;4.316;2023-07-20T11:48:39;22.70;99.90
21787;DHT22;11055;50.870;4.316;2023-07-20T11:51:05;22.80;99.90
21787;DHT22;11055;50.870;4.316;2023-07-20T11:53:31;22.80;99.90
21787;DHT22;11055;50.870;4.316;2023-07-20T11:55:58;22.90;99.90
21787;DHT22;11055;50.870;4.316;2023-07-20T11:58:24;22.90;99.90
21787;DHT22;11055;50.870;4.316;2023-07-20T12:00:55;22.90;99.90
21787;DHT22;11055;50.870;4.316;2023-07-20T12:03:21;22.90;99.90
21787;DHT22;11055;50.870;4.316;2023-07-20T12:05:46;22.80;99.90
21787;DHT22;11055;50.870;4.316;2023-07-20T12:08:12;22.50;99.90
21787;DHT22;11055;50.870;4.316;2023-07-20T12:10:40;22.50;99.90
21787;DHT22;11055;50.870;4.316;2023-07-20T12:13:10;22.40;99.90
21787;DHT22;11055;50.870;4.316;2023-07-20T12:15:39;22.50;99.90
21787;DHT22;11055;50.870;4.316;2023-07-20T12:18:05;22.50;99.90
21787;DHT22;11055;50.870;4.316;2023-07-20T12:20:33;22.40;99.90
21787;DHT22;11055;50.870;4.316;2023-07-20T12:23:12;22.60;99.90
21787;DHT22;11055;50.870;4.316;2023-07-20T12:25:47;22.80;99.90
21787;DHT22;11055;50.870;4.316;2023-07-20T12:28:17;22.80;99.90
21787;DHT22;11055;50.870;4.316;2023-07-20T12:30:44;22.90;99.90
21787;DHT22;11055;50.870;4.316;2023-07-20T12:33:21;23.00;99.90
21787;DHT22;11055;50.870;4.316;2023-07-20T12:35:47;23.00;99.90
21787;DHT22;11055;50.870;4.316;2023-07-20T12:38:13;23.10;99.90
21787;DHT22;11055;50.870;4.316;2023-07-20T12:40:39;23.10;99.90
21787;DHT22;11055;50.870;4.316;2023-07-20T12:43:05;22.80;99.90
21787;DHT22;11055;50.870;4.316;2023-07-20T12:45:32;22.60;99.90
21787;DHT22;11055;50.870;4.316;2023-07-20T12:47:57;22.60;99.90
21787;DHT22;11055;50.870;4.316;2023-07-20T12:50:23;22.80;99.90
21787;DHT22;11055;50.870;4.316;2023-07-20T12:52:49;22.90;99.90
21787;DHT22;11055;50.870;4.316;2023-07-20T12:55:14;22.60;99.90
21787;DHT22;11055;50.870;4.316;2023-07-20T12:57:41;22.60;99.90
21787;DHT22;11055;50.870;4.316;2023-07-20T13:00:09;22.60;99.90
21787;DHT22;11055;50.870;4.316;2023-07-20T13:02:35;22.80;99.90
21787;DHT22;11055;50.870;4.316;2023-07-20T13:05:01;22.60;99.90
21787;DHT22;11055;50.870;4.316;2023-07-20T13:07:32;22.70;99.90
21787;DHT22;11055;50.870;4.316;2023-07-20T13:09:59;23.00;99.90
21787;DHT22;11055;50.870;4.316;2023-07-20T13:12:29;23.00;99.90
21787;DHT22;11055;50.870;4.316;2023-07-20T13:14:56;22.80;99.90
21787;DHT22;11055;50.870;4.316;2023-07-20T13:17:22;22.70;99.90
21787;DHT22;11055;50.870;4.316;2023-07-20T13:19:48;22.60;99.90
21787;DHT22;11055;50.870;4.316;2023-07-20T13:22:14;22.50;99.90
21787;DHT22;11055;50.870;4.316;2023-07-20T13:24:45;22.30;99.90
21787;DHT22;11055;50.870;4.316;2023-07-20T13:27:17;22.20;99.90
21787;DHT22;11055;50.870;4.316;2023-07-20T13:29:43;22.20;99.90
21787;DHT22;11055;50.870;4.316;2023-07-20T13:32:09;22.40;99.90
21787;DHT22;11055;50.870;4.316;2023-07-20T13:34:35;22.30;99.90
21787;DHT22;11055;50.870;4.316;2023-07-20T13:37:01;22.30;99.90
21787;DHT22;11055;50.870;4.316;2023-07-20T13:39:28;22.10;99.90
21787;DHT22;11055;50.870;4.316;2023-07-20T13:41:54;22.00;99.90
21787;DHT22;11055;50.870;4.316;2023-07-20T13:44:21;21.90;99.90
21787;DHT22;11055;50.870;4.316;2023-07-20T13:46:49;21.90;99.90
21787;DHT22;11055;50.870;4.316;2023-07-20T13:49:15;21.90;99.90
21787;DHT22;11055;50.870;4.316;2023-07-20T13:51:44;22.00;99.90
21787;DHT22;11055;50.870;4.316;2023-07-20T13:54:10;22.10;99.90
21787;DHT22;11055;50.870;4.316;2023-07-20T13:56:37;22.20;99.90
21787;DHT22;11055;50.870;4.316;2023-07-20T13:59:04;22.30;99.90
21787;DHT22;11055;50.870;4.316;2023-07-20T14:01:31;22.40;99.90
21787;DHT22;11055;50.870;4.316;2023-07-20T14:04:02;22.40;99.90
21787;DHT22;11055;50.870;4.316;2023-07-20T14:06:32;22.40;99.90
21787;DHT22;11055;50.870;4.316;2023-07-20T14:08:58;22.40;99.90
21787;DHT22;11055;50.870;4.316;2023-07-20T14:11:25;22.50;99.90
21787;DHT22;11055;50.870;4.316;2023-07-20T14:13:51;22.40;99.90
21787;DHT22;11055;50.870;4.316;2023-07-20T14:16:22;22.40;99.90
21787;DHT22;11055;50.870;4.316;2023-07-20T14:18:48;22.40;99.90
21787;DHT22;11055;50.870;4.316;2023-07-20T14:21:15;22.30;99.90
21787;DHT22;11055;50.870;4.316;2023-07-20T14:23:40;22.30;99.90
21787;DHT22;11055;50.870;4.316;2023-07-20T14:26:06;22.30;99.90
21787;DHT22;11055;50.870;4.316;2023-07-20T14:28:34;22.30;99.90
21787;DHT22;11055;50.870;4.316;2023-07-20T14:31:00;22.50;99.90
21787;DHT22;11055;50.870;4.316;2023-07-20T14:33:26;22.50;99.90
21787;DHT22;11055;50.870;4.316;2023-07-20T14:35:51;22.60;99.90
21787;DHT22;11055;50.870;4.316;2023-07-20T14:38:17;22.70;99.90
21787;DHT22;11055;50.870;4.316;2023-07-20T14:40:43;22.80;99.90
21787;DHT22;11055;50.870;4.316;2023-07-20T14:43:08;22.90;99.90
21787;DHT22;11055;50.870;4.316;2023-07-20T14:45:34;22.90;99.90
21787;DHT22;11055;50.870;4.316;2023-07-20T14:48:02;22.90;99.90
21787;DHT22;11055;50.870;4.316;2023-07-20T14:50:28;23.00;99.90
21787;DHT22;11055;50.870;4.316;2023-07-20T14:52:54;23.10;99.90
21787;DHT22;11055;50.870;4.316;2023-07-20T14:55:20;23.20;99.90
21787;DHT22;11055;50.870;4.316;2023-07-20T14:57:45;23.20;99.90
21787;DHT22;11055;50.870;4.316;2023-07-20T15:00:12;23.00;99.90
21787;DHT22;11055;50.870;4.316;2023-07-20T15:02:41;22.90;99.90
21787;DHT22;11055;50.870;4.316;2023-07-20T15:05:07;22.90;99.90
21787;DHT22;11055;50.870;4.316;2023-07-20T15:07:33;23.00;99.90
21787;DHT22;11055;50.870;4.316;2023-07-20T15:10:00;23.10;99.90
21787;DHT22;11055;50.870;4.316;2023-07-20T15:12:26;23.00;99.90
21787;DHT22;11055;50.870;4.316;2023-07-20T15:15:14;23.00;99.90
21787;DHT22;11055;50.870;4.316;2023-07-20T15:17:42;22.90;99.90
21787;DHT22;11055;50.870;4.316;2023-07-20T15:20:09;22.90;99.90
21787;DHT22;11055;50.870;4.316;2023-07-20T15:22:36;23.00;99.90
21787;DHT22;11055;50.870;4.316;2023-07-20T15:25:05;23.00;99.90
21787;DHT22;11055;50.870;4.316;2023-07-20T15:27:32;23.00;99.90
21787;DHT22;11055;50.870;4.316;2023-07-20T15:29:58;22.90;99.90
21787;DHT22;11055;50.870;4.316;2023-07-20T15:32:23;22.70;99.90
21787;DHT22;11055;50.870;4.316;2023-07-20T15:34:49;22.70;99.90
21787;DHT22;11055;50.870;4.316;2023-07-20T15:37:15;22.50;99.90
21787;DHT22;11055;50.870;4.316;2023-07-20T15:39:40;22.40;99.90
21787;DHT22;11055;50.870;4.316;2023-07-20T15:42:07;22.00;99.90
21787;DHT22;11055;50.870;4.316;2023-07-20T15:44:34;21.40;99.90
21787;DHT22;11055;50.870;4.316;2023-07-20T15:47:00;21.10;99.90